createdAt,value
2023-01-05T00:02:04.233Z,4.00
2023-01-05T00:04:31.897Z,4.00
2023-01-05T00:06:59.502Z,4.90
2023-01-05T00:09:27.018Z,4.40
2023-01-05T00:12:13.002Z,4.37
2023-01-05T00:14:59.044Z,5.20
2023-01-05T00:17:45.522Z,4.80
2023-01-05T00:20:37.163Z,4.30
2023-01-05T00:23:07.342Z,4.07
2023-01-05T00:25:40.775Z,3.80
2023-01-05T00:28:08.853Z,4.00
2023-01-05T00:30:41.361Z,4.30
2023-01-05T00:33:10.371Z,4.27
2023-01-05T00:35:39.198Z,4.73
2023-01-05T00:38:08.383Z,4.10
2023-01-05T00:40:36.932Z,4.83
2023-01-05T00:43:05.475Z,4.67
2023-01-05T00:45:33.402Z,4.30
2023-01-05T00:48:01.140Z,4.13
2023-01-05T00:50:28.779Z,4.07
2023-01-05T00:52:56.616Z,3.63
2023-01-05T00:55:24.130Z,4.10
2023-01-05T00:57:55.568Z,3.93
2023-01-05T01:00:23.354Z,3.63
2023-01-05T01:05:58.692Z,3.60
2023-01-05T01:08:26.858Z,4.00
2023-01-05T01:10:54.556Z,3.20
2023-01-05T01:13:24.104Z,3.80
2023-01-05T01:15:51.613Z,3.53
2023-01-05T01:18:19.230Z,4.00
2023-01-05T01:20:47.602Z,3.70
2023-01-05T01:23:15.276Z,3.77
2023-01-05T01:25:42.800Z,3.93
2023-01-05T01:28:10.257Z,4.10
2023-01-05T01:30:39.575Z,4.43
2023-01-05T01:33:07.126Z,4.63
2023-01-05T01:35:37.570Z,4.10
2023-01-05T01:38:05.348Z,4.27
2023-01-05T01:40:40.931Z,4.30
2023-01-05T01:43:17.287Z,4.03
2023-01-05T01:45:45.628Z,4.33
2023-01-05T01:48:18.116Z,3.93
2023-01-05T01:50:51.533Z,3.80
2023-01-05T01:53:30.930Z,4.30
2023-01-05T01:56:02.521Z,3.67
2023-01-05T01:58:32.079Z,4.13
2023-01-05T02:01:03.279Z,4.03
2023-01-05T02:03:31.820Z,4.63
2023-01-05T02:06:00.949Z,4.67
2023-01-05T02:08:31.528Z,4.00
2023-01-05T02:11:18.553Z,4.40
2023-01-05T02:13:54.773Z,3.90
2023-01-05T02:16:47.150Z,4.20
2023-01-05T02:19:53.719Z,3.90
2023-01-05T02:22:48.505Z,4.10
2023-01-05T02:25:31.141Z,3.43
2023-01-05T02:28:17.839Z,4.30
2023-01-05T02:31:09.655Z,4.00
2023-01-05T02:34:10.801Z,3.80
2023-01-05T02:37:02.184Z,4.40
2023-01-05T02:39:39.140Z,4.43
2023-01-05T02:42:19.858Z,4.60
2023-01-05T02:44:47.393Z,4.83
2023-01-05T02:47:28.021Z,3.93
2023-01-05T02:50:02.012Z,4.40
2023-01-05T02:52:40.106Z,4.33
2023-01-05T02:55:13.835Z,4.43
2023-01-05T02:57:50.558Z,4.77
2023-01-05T03:00:35.702Z,3.97
2023-01-05T03:03:34.093Z,4.20
2023-01-05T03:06:08.160Z,4.20
2023-01-05T03:08:54.166Z,4.27
2023-01-05T03:11:51.743Z,5.17
2023-01-05T03:14:25.643Z,5.07
2023-01-05T03:16:58.162Z,4.63
2023-01-05T03:19:39.724Z,4.47
2023-01-05T03:22:39.696Z,6.27
2023-01-05T03:25:28.044Z,5.40
2023-01-05T03:28:17.253Z,4.33
2023-01-05T03:31:52.061Z,5.20
2023-01-05T03:34:54.664Z,4.80
2023-01-05T03:37:36.128Z,5.10
2023-01-05T03:43:07.669Z,5.23
2023-01-05T03:45:44.578Z,4.77
2023-01-05T03:48:18.113Z,6.60
2023-01-05T03:50:45.627Z,5.17
2023-01-05T03:53:15.847Z,5.20
2023-01-05T03:55:45.473Z,5.80
2023-01-05T03:58:14.221Z,5.30
2023-01-05T04:01:25.143Z,6.03
2023-01-05T04:03:53.757Z,5.83
2023-01-05T04:06:21.459Z,5.90
2023-01-05T04:08:49.096Z,6.07
2023-01-05T04:11:19.086Z,5.07
2023-01-05T04:13:58.378Z,5.30
2023-01-05T04:16:26.536Z,5.50
2023-01-05T04:18:57.015Z,5.50
2023-01-05T04:21:24.886Z,5.93
2023-01-05T04:23:55.382Z,5.47
2023-01-05T04:26:23.911Z,5.50
2023-01-05T04:28:52.498Z,5.10
2023-01-05T04:31:24.230Z,5.20
2023-01-05T04:33:54.136Z,5.40
2023-01-05T04:36:24.109Z,4.97
2023-01-05T04:38:52.167Z,5.23
2023-01-05T04:41:21.724Z,5.30
2023-01-05T04:43:52.239Z,5.77
2023-01-05T04:46:20.729Z,5.20
2023-01-05T04:52:00.315Z,5.17
2023-01-05T04:54:30.379Z,4.93
2023-01-05T04:56:58.891Z,5.40
2023-01-05T04:59:26.435Z,5.33
2023-01-05T05:01:56.660Z,5.03
2023-01-05T05:04:24.378Z,5.73
2023-01-05T05:06:51.974Z,5.60
2023-01-05T05:09:22.083Z,5.17
2023-01-05T05:11:50.180Z,5.10
2023-01-05T05:14:21.613Z,5.50
2023-01-05T05:16:49.458Z,4.90
2023-01-05T05:19:17.143Z,5.10
2023-01-05T05:21:44.783Z,4.90
2023-01-05T05:24:12.697Z,5.83
2023-01-05T05:26:43.601Z,6.10
2023-01-05T05:29:11.875Z,5.50
2023-01-05T05:34:49.586Z,5.70
2023-01-05T05:37:29.329Z,4.90
2023-01-05T05:43:07.392Z,6.60
2023-01-05T05:45:34.962Z,4.80
2023-01-05T05:48:02.542Z,5.53
2023-01-05T05:50:30.448Z,5.27
2023-01-05T05:53:06.484Z,5.23
2023-01-05T05:55:35.954Z,5.63
2023-01-05T05:58:03.596Z,5.97
2023-01-05T06:07:28.442Z,5.67
2023-01-05T06:13:06.424Z,5.50
2023-01-05T06:15:33.937Z,4.63
2023-01-05T06:18:02.471Z,5.07
2023-01-05T06:20:29.875Z,5.40
2023-01-05T06:22:57.301Z,5.30
2023-01-05T06:25:24.867Z,4.33
2023-01-05T06:27:52.252Z,5.07
2023-01-05T06:30:20.728Z,5.10
2023-01-05T06:32:48.139Z,5.57
2023-01-05T06:35:15.660Z,5.70
2023-01-05T06:37:43.320Z,4.50
2023-01-05T06:40:11.893Z,4.80
2023-01-05T06:42:39.526Z,5.70
2023-01-05T06:45:07.903Z,5.60
2023-01-05T06:47:35.356Z,5.33
2023-01-05T06:50:02.835Z,4.80
2023-01-05T06:52:30.435Z,5.47
2023-01-05T06:54:57.871Z,5.60
2023-01-05T06:57:25.443Z,5.77
2023-01-05T06:59:52.807Z,5.60
2023-01-05T07:02:20.248Z,5.80
2023-01-05T07:04:47.747Z,5.90
2023-01-05T07:07:16.039Z,5.63
2023-01-05T07:09:49.091Z,5.70
2023-01-05T07:12:18.182Z,5.03
2023-01-05T07:14:45.850Z,5.00
2023-01-05T07:17:13.348Z,4.90
2023-01-05T07:19:40.810Z,4.77
2023-01-05T07:22:08.214Z,5.40
2023-01-05T07:24:35.693Z,5.27
2023-01-05T07:27:09.282Z,4.67
2023-01-05T07:29:37.459Z,5.50
2023-01-05T07:32:05.126Z,5.03
2023-01-05T07:34:32.499Z,4.47
2023-01-05T07:36:59.903Z,4.37
2023-01-05T07:39:27.259Z,4.80
2023-01-05T07:41:54.589Z,5.13
2023-01-05T07:44:25.507Z,5.17
2023-01-05T07:46:53.633Z,5.13
2023-01-05T07:49:21.296Z,4.70
2023-01-05T07:51:48.887Z,4.67
2023-01-05T07:54:16.391Z,4.43
2023-01-05T07:56:43.738Z,4.80
2023-01-05T07:59:11.052Z,5.97
2023-01-05T08:01:38.546Z,5.37
2023-01-05T08:04:06.803Z,5.07
2023-01-05T08:06:34.463Z,5.40
2023-01-05T08:09:21.889Z,5.50
2023-01-05T08:11:49.374Z,4.37
2023-01-05T08:14:16.978Z,5.13
2023-01-05T08:16:44.430Z,4.63
2023-01-05T08:19:12.043Z,4.90
2023-01-05T08:21:39.519Z,4.50
2023-01-05T08:24:07.339Z,4.27
2023-01-05T08:26:34.785Z,3.83
2023-01-05T08:29:02.118Z,4.03
2023-01-05T08:31:30.952Z,3.50
2023-01-05T08:34:00.410Z,3.87
2023-01-05T08:36:28.321Z,4.33
2023-01-05T08:38:56.412Z,3.63
2023-01-05T08:41:30.073Z,4.00
2023-01-05T08:44:00.182Z,4.13
2023-01-05T08:46:30.460Z,4.80
2023-01-05T08:48:59.942Z,4.83
2023-01-05T08:51:28.355Z,4.30
2023-01-05T08:53:56.370Z,4.67
2023-01-05T08:56:30.513Z,3.93
2023-01-05T08:59:00.568Z,4.37
2023-01-05T09:01:31.324Z,5.07
2023-01-05T09:03:58.807Z,4.53
2023-01-05T09:06:26.183Z,5.03
2023-01-05T09:08:54.797Z,5.03
2023-01-05T09:11:24.247Z,5.53
2023-01-05T09:13:54.390Z,5.57
2023-01-05T09:16:49.526Z,5.53
2023-01-05T09:19:12.587Z,5.53
2023-01-05T09:21:39.910Z,6.10
2023-01-05T09:24:12.827Z,5.20
2023-01-05T09:26:41.961Z,5.60
2023-01-05T09:29:10.230Z,5.20
2023-01-05T09:31:37.637Z,5.83
2023-01-05T09:34:05.192Z,5.00
2023-01-05T09:36:33.142Z,5.73
2023-01-05T09:39:00.559Z,5.03
2023-01-05T09:41:34.068Z,4.73
2023-01-05T09:44:28.114Z,4.87
2023-01-05T09:46:59.321Z,4.73
2023-01-05T09:49:29.458Z,5.47
2023-01-05T09:52:09.017Z,6.00
2023-01-05T09:54:38.110Z,5.57
2023-01-05T09:57:12.968Z,5.57
2023-01-05T09:59:53.134Z,5.83
2023-01-05T10:02:38.737Z,5.93
2023-01-05T10:05:07.310Z,5.57
2023-01-05T10:07:52.961Z,4.70
2023-01-05T10:10:38.384Z,5.27
2023-01-05T10:13:11.200Z,5.10
2023-01-05T10:15:54.037Z,5.33
2023-01-05T10:18:25.689Z,5.10
2023-01-05T10:21:21.235Z,4.23
2023-01-05T10:24:18.345Z,5.00
2023-01-05T10:27:24.731Z,5.37
2023-01-05T10:30:13.191Z,5.87
2023-01-05T10:32:50.573Z,5.20
2023-01-05T10:36:06.301Z,5.33
2023-01-05T10:38:58.947Z,5.30
2023-01-05T10:42:08.019Z,5.50
2023-01-05T10:45:11.482Z,4.87
2023-01-05T10:47:40.956Z,4.73
2023-01-05T10:50:34.953Z,5.30
2023-01-05T10:53:16.395Z,4.93
2023-01-05T10:55:45.720Z,5.43
2023-01-05T10:58:30.393Z,5.20
2023-01-05T11:01:05.109Z,6.30
2023-01-05T11:04:23.076Z,5.93
2023-01-05T11:06:34.004Z,5.80
2023-01-05T11:09:27.866Z,5.77
2023-01-05T11:11:57.145Z,5.90
2023-01-05T11:14:26.895Z,5.33
2023-01-05T11:17:00.849Z,5.40
2023-01-05T11:19:35.725Z,6.00
2023-01-05T11:22:03.252Z,5.97
2023-01-05T11:24:33.419Z,6.40
2023-01-05T11:27:20.738Z,6.13
2023-01-05T11:30:21.113Z,6.10
2023-01-05T11:32:48.558Z,6.10
2023-01-05T11:35:33.453Z,6.23
2023-01-05T11:38:00.986Z,6.17
2023-01-05T11:40:34.331Z,5.63
2023-01-05T11:43:11.562Z,6.47
2023-01-05T11:45:46.295Z,5.00
2023-01-05T11:48:20.575Z,5.50
2023-01-05T11:50:50.793Z,6.03
2023-01-05T11:53:35.741Z,6.10
2023-01-05T11:56:18.286Z,6.53
2023-01-05T11:59:00.524Z,5.87
2023-01-05T12:01:37.449Z,5.53
2023-01-05T12:04:17.039Z,5.73
2023-01-05T12:06:56.809Z,6.47
2023-01-05T12:09:37.787Z,6.00
2023-01-05T12:12:30.517Z,6.23
2023-01-05T12:15:16.546Z,6.20
2023-01-05T12:18:24.015Z,6.07
2023-01-05T12:21:00.456Z,6.10
2023-01-05T12:24:12.715Z,5.90
2023-01-05T12:27:00.402Z,5.80
2023-01-05T12:31:06.518Z,6.77
2023-01-05T12:35:21.774Z,6.40
2023-01-05T12:38:11.542Z,5.60
2023-01-05T12:41:09.600Z,4.77
2023-01-05T12:44:06.367Z,6.90
2023-01-05T12:47:23.505Z,6.10
2023-01-05T12:50:00.544Z,6.27
2023-01-05T12:52:41.895Z,5.70
2023-01-05T12:55:20.561Z,7.27
2023-01-05T12:57:57.310Z,6.50
2023-01-05T13:00:28.736Z,6.17
2023-01-05T13:03:11.463Z,5.73
2023-01-05T13:06:20.220Z,6.47
2023-01-05T13:09:03.662Z,5.67
2023-01-05T13:11:58.186Z,5.97
2023-01-05T13:14:34.366Z,6.30
2023-01-05T13:17:15.401Z,5.70
2023-01-05T13:19:50.294Z,5.37
2023-01-05T13:22:24.310Z,5.57
2023-01-05T13:25:03.922Z,6.40
2023-01-05T13:27:34.230Z,5.63
2023-01-05T13:30:03.929Z,5.87
2023-01-05T13:32:54.261Z,5.87
2023-01-05T13:35:52.819Z,6.37
2023-01-05T13:38:30.234Z,6.40
2023-01-05T13:41:03.736Z,6.37
2023-01-05T13:43:48.858Z,5.27
2023-01-05T13:46:26.839Z,5.37
2023-01-05T13:49:28.498Z,5.60
2023-01-05T13:52:10.588Z,5.23
2023-01-05T13:55:01.062Z,5.93
2023-01-05T13:57:42.423Z,6.00
2023-01-05T14:00:33.348Z,5.60
2023-01-05T14:03:14.053Z,5.40
2023-01-05T14:05:59.166Z,5.77
2023-01-05T14:08:33.821Z,6.20
2023-01-05T14:11:12.994Z,5.47
2023-01-05T14:13:51.865Z,6.47
2023-01-05T14:16:43.823Z,5.40
2023-01-05T14:19:33.530Z,4.97
2023-01-05T14:22:04.611Z,5.23
2023-01-05T14:24:31.864Z,6.03
2023-01-05T14:27:20.454Z,5.90
2023-01-05T14:29:54.130Z,5.90
2023-01-05T14:32:28.739Z,5.57
2023-01-05T14:34:59.746Z,5.00
2023-01-05T14:37:40.416Z,5.43
2023-01-05T14:40:25.352Z,5.40
2023-01-05T14:42:52.951Z,5.77
2023-01-05T14:45:31.795Z,5.67
2023-01-05T14:48:23.991Z,4.80
2023-01-05T14:51:08.719Z,5.70
2023-01-05T14:53:43.316Z,5.43
2023-01-05T14:56:18.455Z,6.70
2023-01-05T14:58:45.824Z,5.30
2023-01-05T15:01:18.956Z,5.53
2023-01-05T15:04:06.790Z,6.00
2023-01-05T15:07:08.614Z,5.80
2023-01-05T15:10:20.698Z,6.10
2023-01-05T15:13:22.075Z,5.47
2023-01-05T15:16:20.981Z,7.10
2023-01-05T15:18:57.713Z,6.60
2023-01-05T15:21:50.590Z,5.57
2023-01-05T15:25:23.395Z,6.57
2023-01-05T15:28:12.137Z,6.30
2023-01-05T15:31:05.388Z,5.10
2023-01-05T15:33:50.078Z,7.00
2023-01-05T15:36:31.702Z,6.03
2023-01-05T15:38:59.117Z,5.67
2023-01-05T15:41:28.493Z,6.50
2023-01-05T15:43:56.604Z,5.93
2023-01-05T15:46:34.301Z,6.37
2023-01-05T15:49:02.163Z,5.60
2023-01-05T15:51:32.343Z,6.30
2023-01-05T15:54:05.271Z,5.60
2023-01-05T15:56:35.841Z,5.57
2023-01-05T15:59:17.531Z,5.90
2023-01-05T16:01:44.875Z,6.17
2023-01-05T16:04:14.452Z,6.13
2023-01-05T16:06:45.875Z,6.03
2023-01-05T16:09:33.556Z,6.30
2023-01-05T16:12:23.178Z,5.90
2023-01-05T16:15:01.382Z,5.97
2023-01-05T16:17:31.847Z,5.50
2023-01-05T16:20:07.636Z,6.23
2023-01-05T16:22:57.944Z,5.97
2023-01-05T16:25:32.789Z,7.00
2023-01-05T16:28:07.199Z,6.33
2023-01-05T16:30:41.340Z,6.13
2023-01-05T16:33:12.173Z,6.00
2023-01-05T16:35:53.633Z,6.80
2023-01-05T16:38:26.215Z,6.57
2023-01-05T16:41:19.758Z,6.20
2023-01-05T16:43:59.894Z,6.47
2023-01-05T16:46:35.477Z,6.40
2023-01-05T16:49:27.946Z,6.60
2023-01-05T16:51:57.170Z,6.63
2023-01-05T16:54:37.116Z,6.07
2023-01-05T16:57:29.376Z,6.63
2023-01-05T16:59:57.471Z,6.50
2023-01-05T17:02:40.768Z,6.70
2023-01-05T17:05:08.990Z,6.60
2023-01-05T17:07:39.716Z,6.33
2023-01-05T17:10:13.538Z,6.13
2023-01-05T17:12:40.932Z,6.60
2023-01-05T17:15:18.515Z,6.03
2023-01-05T17:17:46.408Z,7.00
2023-01-05T17:20:14.013Z,6.47
2023-01-05T17:22:41.499Z,5.53
2023-01-05T17:25:13.819Z,6.17
2023-01-05T17:27:42.174Z,5.90
2023-01-05T17:30:20.175Z,6.50
2023-01-05T17:32:47.882Z,6.83
2023-01-05T17:35:18.440Z,7.37
2023-01-05T17:37:47.340Z,7.10
2023-01-05T17:40:21.012Z,7.10
2023-01-05T17:42:48.698Z,6.50
2023-01-05T17:45:22.084Z,6.73
2023-01-05T17:47:51.109Z,6.87
2023-01-05T17:50:27.843Z,7.20
2023-01-05T17:52:55.675Z,7.13
2023-01-05T17:55:23.521Z,6.40
2023-01-05T17:57:51.443Z,7.50
2023-01-05T18:00:22.160Z,6.53
2023-01-05T18:02:51.071Z,7.03
2023-01-05T18:05:19.165Z,6.73
2023-01-05T18:07:47.171Z,6.40
2023-01-05T18:10:18.275Z,6.70
2023-01-05T18:12:46.025Z,6.80
2023-01-05T18:15:14.318Z,7.20
2023-01-05T18:17:42.834Z,7.27
2023-01-05T18:20:13.786Z,6.60
2023-01-05T18:22:41.763Z,7.10
2023-01-05T18:25:12.491Z,6.63
2023-01-05T18:27:40.778Z,6.80
2023-01-05T18:30:09.484Z,7.43
2023-01-05T18:32:38.094Z,6.87
2023-01-05T18:35:09.759Z,6.70
2023-01-05T18:37:39.484Z,7.53
2023-01-05T18:40:08.811Z,7.43
2023-01-05T18:42:37.109Z,7.53
2023-01-05T18:45:18.729Z,7.70
2023-01-05T18:47:47.792Z,7.77
2023-01-05T18:50:15.317Z,7.33
2023-01-05T18:52:42.934Z,8.10
2023-01-05T18:55:11.224Z,7.60
2023-01-05T18:57:38.603Z,7.50
2023-01-05T19:00:06.473Z,6.83
2023-01-05T19:02:33.798Z,7.60
2023-01-05T19:05:01.288Z,6.83
2023-01-05T19:07:28.604Z,6.70
2023-01-05T19:09:55.892Z,6.37
2023-01-05T19:12:23.285Z,6.37
2023-01-05T19:14:50.637Z,6.80
2023-01-05T19:17:17.923Z,6.97
2023-01-05T19:19:45.323Z,7.73
2023-01-05T19:22:12.703Z,8.23
2023-01-05T19:24:40.107Z,7.83
2023-01-05T19:27:07.463Z,7.83
2023-01-05T19:29:35.189Z,7.20
2023-01-05T19:32:02.457Z,6.97
2023-01-05T19:34:29.861Z,8.40
2023-01-05T19:36:57.221Z,6.90
2023-01-05T19:39:24.645Z,7.93
2023-01-05T19:41:53.091Z,7.63
2023-01-05T19:44:21.756Z,7.33
2023-01-05T19:46:51.880Z,7.37
2023-01-05T19:49:24.725Z,7.00
2023-01-05T19:51:52.467Z,7.70
2023-01-05T19:54:22.081Z,6.80
2023-01-05T19:56:49.671Z,6.10
2023-01-05T19:59:24.436Z,6.37
2023-01-05T20:01:53.231Z,7.77
2023-01-05T20:04:20.535Z,7.33
2023-01-05T20:06:47.873Z,7.57
2023-01-05T20:09:19.000Z,7.03
2023-01-05T20:11:49.829Z,7.97
2023-01-05T20:14:20.950Z,7.10
2023-01-05T20:16:54.240Z,7.03
2023-01-05T20:19:24.098Z,7.03
2023-01-05T20:21:51.655Z,7.43
2023-01-05T20:24:24.372Z,8.27
2023-01-05T20:26:54.553Z,7.53
2023-01-05T20:29:23.608Z,7.60
2023-01-05T20:32:06.775Z,7.83
2023-01-05T20:34:36.282Z,8.00
2023-01-05T20:37:07.231Z,8.10
2023-01-05T20:39:36.090Z,7.27
2023-01-05T20:42:05.025Z,7.77
2023-01-05T20:44:36.698Z,8.33
2023-01-05T20:47:05.846Z,7.90
2023-01-05T20:49:34.652Z,7.50
2023-01-05T20:52:02.371Z,7.80
2023-01-05T20:54:29.921Z,7.37
2023-01-05T20:56:57.394Z,6.30
2023-01-05T20:59:28.284Z,7.37
2023-01-05T21:01:56.767Z,7.03
2023-01-05T21:04:26.294Z,8.27
2023-01-05T21:06:55.289Z,7.30
2023-01-05T21:09:24.432Z,7.10
2023-01-05T21:11:51.753Z,6.67
2023-01-05T21:14:19.958Z,6.80
2023-01-05T21:16:51.488Z,6.57
2023-01-05T21:19:22.999Z,6.97
2023-01-05T21:21:53.217Z,7.13
2023-01-05T21:24:22.337Z,6.83
2023-01-05T21:26:50.335Z,6.63
2023-01-05T21:29:22.059Z,7.13
2023-01-05T21:31:57.199Z,7.30
2023-01-05T21:34:25.817Z,7.83
2023-01-05T21:36:57.063Z,7.77
2023-01-05T21:39:28.459Z,7.87
2023-01-05T21:42:14.543Z,7.73
2023-01-05T21:44:48.526Z,7.07
2023-01-05T21:47:24.705Z,8.10
2023-01-05T21:49:52.959Z,7.70
2023-01-05T21:52:41.761Z,7.70
2023-01-05T21:55:28.805Z,8.17
2023-01-05T21:58:00.874Z,8.07
2023-01-05T22:00:32.494Z,7.23
2023-01-05T22:03:00.501Z,7.80
2023-01-05T22:05:31.108Z,8.13
2023-01-05T22:08:02.617Z,7.73
2023-01-05T22:10:33.131Z,7.70
2023-01-05T22:13:01.340Z,7.50
2023-01-05T22:15:32.049Z,7.17
2023-01-05T22:17:59.522Z,6.90
2023-01-05T22:20:27.243Z,7.50
2023-01-05T22:22:54.770Z,7.23
2023-01-05T22:25:22.426Z,7.43
2023-01-05T22:27:49.999Z,6.43
2023-01-05T22:30:20.379Z,7.30
2023-01-05T22:32:49.247Z,7.93
2023-01-05T22:35:19.979Z,7.33
2023-01-05T22:37:47.808Z,7.20
2023-01-05T22:40:15.523Z,8.07
2023-01-05T22:42:43.035Z,6.97
2023-01-05T22:45:11.217Z,7.23
2023-01-05T22:47:38.631Z,6.70
2023-01-05T22:50:06.849Z,8.00
2023-01-05T22:52:34.428Z,6.10
2023-01-05T22:55:02.130Z,8.47
2023-01-05T22:57:29.592Z,7.50
2023-01-05T22:59:57.005Z,7.17
2023-01-05T23:02:24.461Z,7.17
2023-01-05T23:04:51.888Z,7.07
2023-01-05T23:07:20.704Z,7.57
2023-01-05T23:09:48.168Z,7.37
2023-01-05T23:12:15.610Z,6.73
2023-01-05T23:14:42.952Z,6.90
2023-01-05T23:17:12.208Z,6.70
2023-01-05T23:19:39.581Z,7.93
2023-01-05T23:22:06.931Z,7.60
2023-01-05T23:24:34.741Z,6.03
2023-01-05T23:27:02.118Z,7.13
2023-01-05T23:29:29.624Z,6.57
2023-01-05T23:31:57.027Z,6.53
2023-01-05T23:34:24.354Z,7.47
2023-01-05T23:36:51.750Z,7.03
2023-01-05T23:39:19.263Z,6.33
2023-01-05T23:41:46.700Z,7.80
2023-01-05T23:44:14.560Z,6.53
2023-01-05T23:46:41.982Z,6.17
2023-01-05T23:49:09.412Z,6.40
2023-01-05T23:51:36.858Z,6.20
2023-01-05T23:54:04.552Z,7.50
2023-01-05T23:56:32.043Z,6.93
2023-01-05T23:59:04.242Z,6.93
